Latest Weather Observations for Argyle

IDW60801

Issued at 2:33 pm WST Saturday 10 December 2022 (issued every 10 minutes, with the page automatically refreshed every 10 minutes)

About weather observations | Map of weather stations | Latest weather observations for WA | Other Formats
Station Details ID: 002064 Name: ARGYLE AERODROME Lat: -16.64 Lon: 128.45 Height: 164.0 m
Data from the previous 72 hours. | See also: Recent months at Argyle
Date/Time
WST
Temp
°C
App
Temp
°C
Dew
Point
°C
Rel
Hum
%
Delta-T
°C
Wind Press
QNH
hPa
Press
MSL
hPa
Rain since
9am
mm
Dir  Spd
km/h
Gust
km/h
Spd
kts
Gust
kts
10/02:30pm 40.7 39.2 14.1 21 16.8 NE 15 24 8 13 1005.1 1003.8 0.0
10/02:00pm 41.6 39.3 14.1 20 17.4 NNE 19 28 10 15 1005.7 1004.3 0.0
10/01:30pm 41.4 38.6 11.4 17 18.3 NNE 17 24 9 13 1006.1 1004.7 0.0
10/01:00pm 40.9 39.8 14.3 21 16.9 N 13 20 7 11 1006.3 1004.9 0.0
10/12:30pm 40.6 40.8 16.7 24 15.6 ESE 11 15 6 8 1006.8 1005.4 0.0
10/12:00pm 40.5 41.4 16.0 24 15.9 NNW 6 15 3 8 1007.1 1005.7 0.0
10/11:30am 39.2 39.4 16.8 27 14.6 ENE 11 19 6 10 1007.4 1006.0 0.0
10/11:00am 39.6 40.6 17.7 28 14.5 S 9 13 5 7 1007.8 1006.4 0.0
10/10:30am 38.5 39.5 17.8 29 13.6 ESE 9 17 5 9 1008.3 1006.9 0.0
10/10:00am 38.2 39.3 18.1 30 13.3 SSE 9 17 5 9 1008.6 1007.2 0.0
10/09:30am 37.8 39.4 18.3 32 12.9 E 7 13 4 7 1008.9 1007.5 0.0
10/09:00am 37.0 38.1 17.1 31 12.9 W 7 13 4 7 1008.9 1007.5 0.0
10/08:30am 35.9 38.2 19.8 39 10.8 NNW 7 13 4 7 1009.1 1007.8 0.0
10/08:00am 35.3 36.7 19.6 39 10.5 NW 11 17 6 9 1009.2 1007.9 0.0
10/07:30am 33.5 35.7 20.3 46 8.9 NNW 9 13 5 7 1009.4 1008.1 0.0
10/07:00am 32.7 35.0 20.6 49 8.1 NW 9 17 5 9 1009.2 1007.9 0.0
10/06:30am 31.6 34.6 21.2 54 7.0 NW 7 11 4 6 1009.1 1007.8 0.0
10/06:00am 30.9 33.6 21.4 57 6.4 NW 9 13 5 7 1008.9 1007.5 0.0
10/05:30am 29.5 32.2 21.4 61 5.5 N 9 13 5 7 1008.8 1007.4 0.0
10/05:00am 29.0 31.1 21.0 62 5.4 NNE 11 15 6 8 1008.5 1007.1 0.0
10/04:30am 28.9 31.8 21.1 62 5.2 NW 7 9 4 5 1007.7 1006.3 0.0
10/04:00am 29.3 31.8 21.0 61 5.6 NW 9 9 5 5 1007.3 1005.9 0.0
10/03:30am 29.5 31.9 20.9 60 5.8 N 9 13 5 7 1006.9 1005.5 0.0
10/03:00am 30.1 32.7 20.4 56 6.5 NNW 7 9 4 5 1006.5 1005.1 0.0
10/02:30am 30.3 34.1 20.2 54 6.7 CALM 0 6 0 3 1006.6 1005.2 0.0
10/02:00am 30.4 32.9 20.3 54 6.7 NW 7 9 4 5 1006.4 1005.0 0.0
10/01:30am 30.2 32.3 20.2 55 6.6 WNW 9 11 5 6 1006.5 1005.1 0.0
10/01:00am 30.4 32.0 20.0 53 6.9 NNW 11 15 6 8 1006.7 1005.3 0.0
10/12:30am 31.2 33.0 19.5 49 7.7 NNW 9 11 5 6 1006.9 1005.5 0.0
10/12:00am 30.3 32.7 20.0 54 6.8 E 7 9 4 5 1007.4 1006.0 0.0
 
Date/Time
WST
Temp
°C
App
Temp
°C
Dew
Point
°C
Rel
Hum
%
Delta-T
°C
Wind Press
QNH
hPa
Press
MSL
hPa
Rain since
9am
mm
Dir  Spd
km/h
Gust
km/h
Spd
kts
Gust
kts
09/11:30pm 31.1 34.0 19.8 51 7.5 NNE 4 7 2 4 1007.2 1005.8 0.0
09/11:00pm 31.6 33.3 18.6 46 8.5 NNW 7 9 4 5 1007.1 1005.7 0.0
09/10:30pm 32.1 33.7 18.3 44 9.0 NNW 7 7 4 4 1007.2 1005.8 0.0
09/10:00pm 33.0 35.8 18.0 41 9.8 CALM 0 9 0 5 1007.3 1005.9 0.0
09/09:30pm 32.9 33.6 17.9 41 9.7 W 11 13 6 7 1007.5 1006.1 0.0
09/09:00pm 32.6 33.7 18.0 41 9.5 NW 9 13 5 7 1007.8 1006.4 0.0
09/08:30pm 32.7 32.9 17.7 40 9.7 NNW 13 15 7 8 1007.5 1006.1 0.0
09/08:00pm 32.4 33.7 17.5 41 9.6 ESE 7 9 4 5 1007.1 1005.7 0.0
09/07:30pm 33.5 34.4 17.6 38 10.3 WSW 9 11 5 6 1006.9 1005.5 0.0
09/07:00pm 34.0 33.7 16.4 35 11.2 NNW 13 17 7 9 1006.4 1005.0 0.0
09/06:30pm 34.4 34.0 17.2 36 11.1 NNE 15 20 8 11 1006.1 1004.7 0.0
09/06:00pm 35.5 36.3 16.3 32 12.3 NW 7 9 4 5 1005.4 1004.1 0.0
09/05:30pm 36.3 35.2 15.4 28 13.2 NW 15 19 8 10 1004.8 1003.5 0.0
09/05:00pm 37.5 36.2 14.7 25 14.4 N 15 20 8 11 1004.5 1003.2 0.0
09/04:30pm 37.8 36.7 14.4 25 14.7 SE 13 20 7 11 1004.0 1002.7 0.0
09/04:00pm 39.1 37.8 14.8 23 15.4 SE 15 24 8 13 1004.0 1002.7 0.0
09/03:33pm 38.9 35.5 15.9 25 14.8 SE 28 46 15 25 1004.1 1002.8 0.0
09/03:30pm 39.2 36.7 16.2 26 14.8 ESE 24 46 13 25 1004.1 1002.8 0.0
09/03:27pm 39.1 37.0 14.8 23 15.4 ESE 19 46 10 25 1004.2 1002.9 0.0
09/03:00pm 41.4 39.9 13.1 19 17.7 ESE 13 17 7 9 1003.8 1002.5 0.0
09/02:30pm 41.8 40.7 14.2 19 17.5 SE 13 22 7 12 1004.0 1002.7 0.0
09/02:00pm 41.7 41.6 14.9 21 17.2 ESE 9 17 5 9 1004.4 1003.1 0.0
09/01:30pm 41.7 40.5 14.1 19 17.5 ESE 13 20 7 11 1004.7 1003.4 0.0
09/01:00pm 41.4 41.3 13.9 20 17.4 ESE 7 13 4 7 1005.1 1003.8 0.0
09/12:30pm 41.0 40.2 15.1 22 16.6 SE 13 19 7 10 1005.7 1004.3 0.0
09/12:00pm 40.7 41.1 16.2 24 15.9 SE 9 17 5 9 1006.2 1004.8 0.0
09/11:30am 40.6 40.7 15.4 22 16.2 W 9 13 5 7 1006.7 1005.3 0.0
09/11:00am 39.9 39.0 14.8 22 16.0 SW 13 19 7 10 1007.1 1005.7 0.0
09/10:30am 39.2 39.2 16.2 26 14.8 SSW 11 20 6 11 1007.7 1006.3 0.0
09/10:00am 39.2 40.2 16.8 27 14.6 SSE 7 13 4 7 1008.1 1006.7 0.0
09/09:30am 38.3 38.8 16.6 28 14.0 S 9 17 5 9 1008.3 1006.9 0.0
09/09:00am 37.1 37.8 16.1 29 13.5 SSE 7 13 4 7 1008.5 1007.1 0.0
09/08:30am 36.7 37.5 17.3 31 12.6 SSE 9 13 5 7 1008.7 1007.3 0.0
09/08:00am 35.7 36.3 16.9 32 12.1 SW 9 15 5 8 1008.8 1007.4 0.0
09/07:30am 35.3 38.3 19.2 38 10.7 SW 2 9 1 5 1008.9 1007.5 0.0
09/07:00am 33.7 36.1 19.7 43 9.3 SW 6 9 3 5 1008.9 1007.5 0.0
09/06:30am 32.6 35.6 20.8 49 7.9 S 6 7 3 4 1008.9 1007.5 0.0
09/06:00am 31.1 34.5 21.6 57 6.5 SE 6 7 3 4 1008.9 1007.5 0.0
09/05:30am 30.4 34.7 21.2 58 6.2 CALM 0 0 0 0 1008.6 1007.2 0.0
09/05:00am 28.1 32.4 21.1 65 4.7 CALM 0 0 0 0 1008.4 1007.0 0.0
09/04:30am 28.8 31.7 21.1 63 5.2 SSE 7 11 4 6 1008.3 1006.9 0.0
09/04:00am 29.6 32.5 21.0 60 5.8 WSW 7 9 4 5 1007.8 1006.4 0.0
09/03:30am 29.5 33.0 20.4 58 6.0 NNW 2 6 1 3 1007.4 1006.0 0.0
09/03:00am 30.2 32.0 20.4 55 6.5 NNW 11 13 6 7 1007.0 1005.6 0.0
09/02:30am 30.1 32.3 20.4 56 6.5 NNW 9 11 5 6 1006.9 1005.5 0.0
09/02:00am 30.4 31.8 20.3 54 6.7 NNW 13 15 7 8 1006.7 1005.3 0.0
09/01:30am 30.5 32.6 20.1 53 6.9 N 9 11 5 6 1006.8 1005.4 0.0
09/01:00am 30.6 32.3 20.2 53 6.9 NNW 11 13 6 7 1006.8 1005.4 0.0
09/12:30am 30.9 32.2 20.2 53 7.1 NNW 13 17 7 9 1006.7 1005.3 0.0
09/12:00am 31.3 31.9 20.3 52 7.3 NNW 17 19 9 10 1006.9 1005.5 0.0
 
Date/Time
WST
Temp
°C
App
Temp
°C
Dew
Point
°C
Rel
Hum
%
Delta-T
°C
Wind Press
QNH
hPa
Press
MSL
hPa
Rain since
9am
mm
Dir  Spd
km/h
Gust
km/h
Spd
kts
Gust
kts
08/11:30pm 31.5 32.6 20.4 51 7.4 NNW 15 20 8 11 1007.1 1005.7 0.0
08/11:00pm 31.4 33.4 20.7 53 7.2 NW 11 15 6 8 1007.2 1005.8 0.0
08/10:30pm 32.1 33.9 20.4 50 7.8 NNW 11 15 6 8 1007.4 1006.0 0.0
08/10:00pm 32.6 33.6 20.2 48 8.3 NNW 15 19 8 10 1007.5 1006.1 0.0
08/09:30pm 32.9 33.9 19.4 45 8.9 NNW 13 17 7 9 1007.4 1006.0 0.0
08/09:00pm 33.9 34.8 17.6 38 10.6 WNW 9 11 5 6 1007.1 1005.7 0.0
08/08:30pm 34.5 35.1 16.8 34 11.4 NW 9 11 5 6 1007.0 1005.6 0.0
08/08:00pm 34.7 35.4 17.0 35 11.4 NW 9 11 5 6 1006.9 1005.5 0.0
08/07:30pm 35.1 35.7 16.9 34 11.7 NNW 9 11 5 6 1006.6 1005.2 0.0
08/07:00pm 35.4 36.3 16.7 33 12.0 N 7 9 4 5 1006.4 1005.0 0.0
08/06:30pm 35.9 36.6 16.1 30 12.6 N 7 9 4 5 1006.2 1004.8 0.0
08/06:00pm 36.4 36.9 15.5 29 13.3 N 7 11 4 6 1005.9 1004.5 0.0
08/05:30pm 37.5 37.5 15.3 26 14.1 N 9 13 5 7 1005.7 1004.3 0.0
08/05:00pm 37.7 37.6 14.9 26 14.4 NE 9 13 5 7 1005.5 1004.2 0.0
08/04:30pm 38.2 38.2 15.3 25 14.6 NNE 9 13 5 7 1005.2 1003.9 0.0
08/04:00pm 38.9 38.7 14.7 24 15.3 NE 9 15 5 8 1005.0 1003.7 0.0
08/03:30pm 39.2 39.2 14.3 23 15.7 ENE 7 17 4 9 1005.2 1003.9 0.0
08/03:00pm 39.2 38.3 14.9 23 15.5 ENE 13 20 7 11 1005.4 1004.1 0.0
08/02:30pm 39.2 38.5 14.3 23 15.7 ENE 11 19 6 10 1005.7 1004.3 0.0
08/02:00pm 39.0 38.6 14.1 23 15.6 WNW 9 13 5 7 1005.9 1004.5 0.0
08/01:30pm 39.4 39.2 15.7 24 15.2 ENE 11 20 6 11 1006.3 1004.9 0.0
08/01:00pm 38.6 38.7 14.4 23 15.2 E 7 13 4 7 1006.8 1005.4 0.0
08/12:30pm 39.5 39.7 15.8 24 15.2 WSW 9 13 5 7 1007.3 1005.9 0.0
08/12:00pm 38.0 36.9 15.2 26 14.5 NNE 15 30 8 16 1007.7 1006.3 0.0
08/11:30am 38.5 37.9 15.6 26 14.6 NNE 13 22 7 12 1008.1 1006.7 0.0
08/11:00am 37.9 37.7 15.7 27 14.2 NNE 11 17 6 9 1008.4 1007.0 0.0
08/10:30am 36.8 37.6 15.8 28 13.4 S 6 13 3 7 1008.7 1007.3 0.0
08/10:00am 36.9 36.8 15.9 28 13.4 NNW 11 19 6 10 1009.1 1007.8 0.0
08/09:30am 36.6 36.4 16.7 30 12.8 N 13 19 7 10 1009.4 1008.1 0.0
08/09:00am 35.7 36.1 16.4 31 12.4 NNW 9 15 5 8 1009.7 1008.4 0.0
08/08:30am 34.9 35.5 17.6 35 11.2 NW 11 17 6 9 1009.9 1008.6 0.0
08/08:00am 34.3 34.8 17.5 36 10.9 NW 11 17 6 9 1009.9 1008.6 0.0
08/07:30am 33.1 34.2 18.1 41 9.8 NNW 9 15 5 8 1009.9 1008.6 0.0
08/07:00am 32.1 33.6 19.0 45 8.6 NNW 9 13 5 7 1009.8 1008.5 0.0
08/06:30am 31.0 32.8 18.7 48 8.0 NW 7 9 4 5 1009.7 1008.4 0.0
08/06:00am 30.2 32.1 18.9 50 7.4 NNW 7 9 4 5 1009.6 1008.3 0.0
08/05:30am 28.7 30.6 18.5 54 6.6 NE 6 7 3 4 1009.3 1008.0 0.0
08/05:00am 27.0 28.1 18.0 58 5.7 ENE 9 13 5 7 1008.7 1007.3 0.0
08/04:30am 27.9 30.6 17.7 53 6.5 CALM 0 0 0 0 1007.8 1006.4 0.0
08/04:00am 28.6 30.9 16.8 48 7.4 CALM 0 0 0 0 1007.3 1005.9 0.0
08/03:30am 29.1 30.6 16.6 46 7.9 NW 4 7 2 4 1007.2 1005.8 0.0
08/03:00am 29.3 31.6 16.8 47 7.9 CALM 0 0 0 0 1006.9 1005.5 0.0
08/02:30am 29.6 30.5 16.1 44 8.4 WSW 6 7 3 4 1006.8 1005.4 0.0
08/02:00am 29.7 30.2 16.5 45 8.3 NW 9 11 5 6 1006.7 1005.3 0.0
08/01:30am 30.5 29.7 16.1 41 9.0 NNW 15 20 8 11 1006.7 1005.3 0.0
08/01:00am 30.7 30.7 16.3 42 9.1 NW 11 13 6 7 1006.6 1005.2 0.0
08/12:30am 30.1 30.2 16.5 44 8.6 NW 11 13 6 7 1006.8 1005.4 0.0
08/12:00am 29.9 30.6 17.0 45 8.2 NW 9 13 5 7 1007.1 1005.7 0.0
 
Date/Time
WST
Temp
°C
App
Temp
°C
Dew
Point
°C
Rel
Hum
%
Delta-T
°C
Wind Press
QNH
hPa
Press
MSL
hPa
Rain since
9am
mm
Dir  Spd
km/h
Gust
km/h
Spd
kts
Gust
kts
07/11:30pm 30.8 30.8 17.1 43 8.7 NNW 13 17 7 9 1007.3 1005.9 0.0
07/11:00pm 31.3 31.6 16.9 42 9.2 NNW 11 13 6 7 1007.6 1006.2 0.0
07/10:30pm 31.7 32.3 16.8 40 9.5 NNW 9 11 5 6 1008.0 1006.6 0.0
07/10:00pm 32.0 32.7 17.1 41 9.5 NNW 9 13 5 7 1008.2 1006.8 0.0
07/09:30pm 32.4 32.9 17.5 41 9.6 NNW 11 13 6 7 1008.2 1006.8 0.0
07/09:00pm 32.6 33.7 18.0 41 9.5 NW 9 13 5 7 1007.9 1006.5 0.0
07/08:30pm 32.9 34.1 18.3 42 9.5 NW 9 11 5 6 1007.7 1006.3 0.0
07/08:00pm 33.4 34.6 18.3 40 9.9 NNW 9 13 5 7 1007.5 1006.1 0.0
07/07:30pm 33.9 34.2 18.0 39 10.4 N 13 19 7 10 1007.3 1005.9 0.0
07/07:00pm 34.5 35.1 15.9 33 11.8 NE 7 9 4 5 1006.8 1005.4 0.0
07/06:30pm 34.9 35.3 15.3 31 12.3 NE 7 9 4 5 1006.5 1005.1 0.0
07/06:00pm 35.4 36.0 15.7 31 12.5 NE 7 9 4 5 1006.2 1004.8 0.0
07/05:30pm 36.1 36.7 15.8 30 12.9 NE 7 9 4 5 1005.8 1004.4 0.0
07/05:00pm 36.9 36.4 14.8 26 13.9 NE 11 17 6 9 1005.4 1004.1 0.0
07/04:30pm 37.5 36.5 14.7 25 14.3 NNE 13 17 7 9 1005.4 1004.1 0.0
07/04:00pm 38.0 37.0 14.5 24 14.8 NE 13 19 7 10 1005.3 1004.0 0.0
07/03:30pm 38.2 36.8 13.4 22 15.4 NNE 13 22 7 12 1005.2 1003.9 0.0
07/03:00pm 38.6 37.5 14.4 23 15.3 NE 13 20 7 11 1005.4 1004.1 0.0

Other formats

Comma delimited format used in spreadsheet applications
http://www.bom.gov.au/fwo/IDW60801/IDW60801.94217.axf

JavaScript Object Notation format (JSON) in row-major order
http://www.bom.gov.au/fwo/IDW60801/IDW60801.94217.json

Data quality

Most of these data are generated automatically and are frequently updated. Quality checks on data are not normally performed. It is possible for incorrect values to appear. Refer to information at About Latest Weather Observations and please check the disclaimer before using these data.